sensor_id;sensor_type;location;lat;lon;timestamp;pressure;altitude;pressure_sealevel;temperature;humidity
31483;BME280;18103;52.246;8.052;2022-10-15T00:01:39;99375.63;;;13.47;100.00
31483;BME280;18103;52.246;8.052;2022-10-15T00:04:05;99377.66;;;13.45;100.00
31483;BME280;18103;52.246;8.052;2022-10-15T00:06:30;99375.41;;;13.42;100.00
31483;BME280;18103;52.246;8.052;2022-10-15T00:08:55;99371.91;;;13.48;100.00
31483;BME280;18103;52.246;8.052;2022-10-15T00:11:23;99367.13;;;13.50;100.00
31483;BME280;18103;52.246;8.052;2022-10-15T00:13:56;99365.31;;;13.44;100.00
31483;BME280;18103;52.246;8.052;2022-10-15T00:16:25;99354.19;;;13.47;100.00
31483;BME280;18103;52.246;8.052;2022-10-15T00:18:53;99357.69;;;13.41;100.00
31483;BME280;18103;52.246;8.052;2022-10-15T00:21:19;99352.13;;;13.42;100.00
31483;BME280;18103;52.246;8.052;2022-10-15T00:23:46;99353.78;;;13.37;100.00
31483;BME280;18103;52.246;8.052;2022-10-15T00:26:17;99361.19;;;13.35;100.00
31483;BME280;18103;52.246;8.052;2022-10-15T00:28:44;99370.69;;;13.37;100.00
31483;BME280;18103;52.246;8.052;2022-10-15T00:31:12;99357.91;;;13.33;100.00
31483;BME280;18103;52.246;8.052;2022-10-15T00:33:38;99372.34;;;13.38;100.00
31483;BME280;18103;52.246;8.052;2022-10-15T00:36:06;99373.97;;;13.39;100.00
31483;BME280;18103;52.246;8.052;2022-10-15T00:38:33;99364.50;;;13.37;100.00
31483;BME280;18103;52.246;8.052;2022-10-15T00:40:58;99370.66;;;13.44;100.00
31483;BME280;18103;52.246;8.052;2022-10-15T00:43:42;99370.88;;;13.49;100.00
31483;BME280;18103;52.246;8.052;2022-10-15T00:46:37;99361.59;;;13.45;100.00
31483;BME280;18103;52.246;8.052;2022-10-15T00:49:24;99364.47;;;13.50;100.00
31483;BME280;18103;52.246;8.052;2022-10-15T00:51:55;99359.53;;;13.47;100.00
31483;BME280;18103;52.246;8.052;2022-10-15T00:54:22;99363.88;;;13.48;100.00
31483;BME280;18103;52.246;8.052;2022-10-15T00:56:49;99369.81;;;13.50;100.00
31483;BME280;18103;52.246;8.052;2022-10-15T00:59:15;99363.22;;;13.52;100.00
31483;BME280;18103;52.246;8.052;2022-10-15T01:01:42;99362.41;;;13.52;100.00
31483;BME280;18103;52.246;8.052;2022-10-15T01:04:07;99360.56;;;13.52;100.00
31483;BME280;18103;52.246;8.052;2022-10-15T01:06:33;99370.66;;;13.50;100.00
31483;BME280;18103;52.246;8.052;2022-10-15T01:09:00;99360.56;;;13.46;100.00
31483;BME280;18103;52.246;8.052;2022-10-15T01:11:44;99358.75;;;13.40;100.00
31483;BME280;18103;52.246;8.052;2022-10-15T01:17:20;99361.81;;;13.43;100.00
31483;BME280;18103;52.246;8.052;2022-10-15T01:28:51;99361.59;;;13.45;100.00
31483;BME280;18103;52.246;8.052;2022-10-15T01:31:52;99354.38;;;13.52;100.00
31483;BME280;18103;52.246;8.052;2022-10-15T01:34:26;99351.50;;;13.47;100.00
31483;BME280;18103;52.246;8.052;2022-10-15T01:37:17;99359.53;;;13.47;100.00
31483;BME280;18103;52.246;8.052;2022-10-15T01:40:02;99350.91;;;13.45;100.00
31483;BME280;18103;52.246;8.052;2022-10-15T01:42:47;99355.00;;;13.47;100.00
31483;BME280;18103;52.246;8.052;2022-10-15T01:45:32;99351.06;;;13.50;100.00
31483;BME280;18103;52.246;8.052;2022-10-15T01:48:03;99339.34;;;13.51;100.00
31483;BME280;18103;52.246;8.052;2022-10-15T01:50:32;99339.16;;;13.46;100.00
31483;BME280;18103;52.246;8.052;2022-10-15T01:52:59;99345.13;;;13.48;100.00
31483;BME280;18103;52.246;8.052;2022-10-15T01:55:28;99340.78;;;13.53;100.00
31483;BME280;18103;52.246;8.052;2022-10-15T01:57:55;99339.34;;;13.51;100.00
31483;BME280;18103;52.246;8.052;2022-10-15T02:00:23;99347.19;;;13.46;100.00
31483;BME280;18103;52.246;8.052;2022-10-15T02:02:48;99338.75;;;13.49;100.00
31483;BME280;18103;52.246;8.052;2022-10-15T02:05:18;99346.97;;;13.47;100.00
31483;BME280;18103;52.246;8.052;2022-10-15T02:08:37;99351.28;;;13.42;100.00
31483;BME280;18103;52.246;8.052;2022-10-15T02:10:50;99341.22;;;13.44;100.00
31483;BME280;18103;52.246;8.052;2022-10-15T02:13:40;99327.81;;;13.44;100.00
31483;BME280;18103;52.246;8.052;2022-10-15T02:18:52;99329.88;;;13.42;100.00
31483;BME280;18103;52.246;8.052;2022-10-15T02:21:30;99328.44;;;13.46;100.00
31483;BME280;18103;52.246;8.052;2022-10-15T02:26:32;99333.97;;;13.51;100.00
31483;BME280;18103;52.246;8.052;2022-10-15T02:28:59;99329.06;;;13.41;100.00
31483;BME280;18103;52.246;8.052;2022-10-15T02:31:29;99325.78;;;13.33;100.00
31483;BME280;18103;52.246;8.052;2022-10-15T02:34:00;99326.63;;;13.40;100.00
31483;BME280;18103;52.246;8.052;2022-10-15T02:36:27;99326.00;;;13.38;100.00
31483;BME280;18103;52.246;8.052;2022-10-15T02:38:55;99329.66;;;13.43;100.00
31483;BME280;18103;52.246;8.052;2022-10-15T02:41:22;99321.66;;;13.37;100.00
31483;BME280;18103;52.246;8.052;2022-10-15T02:43:47;99320.00;;;13.36;100.00
31483;BME280;18103;52.246;8.052;2022-10-15T02:46:13;99311.81;;;13.31;100.00
31483;BME280;18103;52.246;8.052;2022-10-15T02:48:40;99322.50;;;13.31;100.00
31483;BME280;18103;52.246;8.052;2022-10-15T02:51:05;99322.91;;;13.28;100.00
31483;BME280;18103;52.246;8.052;2022-10-15T02:53:31;99318.81;;;13.32;100.00
31483;BME280;18103;52.246;8.052;2022-10-15T02:55:56;99322.09;;;13.20;100.00
31483;BME280;18103;52.246;8.052;2022-10-15T02:58:22;99335.69;;;13.12;100.00
31483;BME280;18103;52.246;8.052;2022-10-15T03:00:48;99325.19;;;13.17;100.00
31483;BME280;18103;52.246;8.052;2022-10-15T03:03:13;99325.38;;;13.09;100.00
31483;BME280;18103;52.246;8.052;2022-10-15T03:05:39;99330.31;;;12.99;100.00
31483;BME280;18103;52.246;8.052;2022-10-15T03:08:04;99326.63;;;13.00;100.00
31483;BME280;18103;52.246;8.052;2022-10-15T03:10:29;99321.69;;;12.97;100.00
31483;BME280;18103;52.246;8.052;2022-10-15T03:12:55;99322.91;;;12.95;100.00
31483;BME280;18103;52.246;8.052;2022-10-15T03:15:20;99313.84;;;12.89;100.00
31483;BME280;18103;52.246;8.052;2022-10-15T03:17:45;99320.44;;;12.93;100.00
31483;BME280;18103;52.246;8.052;2022-10-15T03:20:11;99324.56;;;12.89;100.00
31483;BME280;18103;52.246;8.052;2022-10-15T03:22:36;99326.19;;;12.90;100.00
31483;BME280;18103;52.246;8.052;2022-10-15T03:25:02;99317.16;;;12.91;100.00
31483;BME280;18103;52.246;8.052;2022-10-15T03:27:27;99320.66;;;12.92;100.00
31483;BME280;18103;52.246;8.052;2022-10-15T03:29:52;99312.63;;;12.85;100.00
31483;BME280;18103;52.246;8.052;2022-10-15T03:32:18;99312.22;;;12.88;100.00
31483;BME280;18103;52.246;8.052;2022-10-15T03:34:43;99315.50;;;12.77;100.00
31483;BME280;18103;52.246;8.052;2022-10-15T03:37:08;99321.50;;;12.79;100.00
31483;BME280;18103;52.246;8.052;2022-10-15T03:39:34;99318.38;;;12.82;100.00
31483;BME280;18103;52.246;8.052;2022-10-15T03:41:59;99312.63;;;12.78;100.00
31483;BME280;18103;52.246;8.052;2022-10-15T03:44:24;99310.56;;;12.80;100.00
31483;BME280;18103;52.246;8.052;2022-10-15T03:46:50;99311.38;;;12.68;100.00
31483;BME280;18103;52.246;8.052;2022-10-15T03:49:15;99311.78;;;12.65;100.00
31483;BME280;18103;52.246;8.052;2022-10-15T03:51:41;99302.75;;;12.66;100.00
31483;BME280;18103;52.246;8.052;2022-10-15T03:54:06;99314.25;;;12.66;100.00
31483;BME280;18103;52.246;8.052;2022-10-15T03:56:31;99318.78;;;12.66;100.00
31483;BME280;18103;52.246;8.052;2022-10-15T03:58:57;99315.09;;;12.67;100.00
31483;BME280;18103;52.246;8.052;2022-10-15T04:01:22;99322.28;;;12.73;100.00
31483;BME280;18103;52.246;8.052;2022-10-15T04:03:51;99307.69;;;12.69;100.00
31483;BME280;18103;52.246;8.052;2022-10-15T04:06:17;99309.75;;;12.67;100.00
31483;BME280;18103;52.246;8.052;2022-10-15T04:08:42;99304.78;;;12.64;100.00
31483;BME280;18103;52.246;8.052;2022-10-15T04:11:08;99309.13;;;12.52;100.00
31483;BME280;18103;52.246;8.052;2022-10-15T04:13:33;99300.28;;;12.58;100.00
31483;BME280;18103;52.246;8.052;2022-10-15T04:15:58;99303.78;;;12.52;100.00
31483;BME280;18103;52.246;8.052;2022-10-15T04:18:24;99304.78;;;12.51;100.00
31483;BME280;18103;52.246;8.052;2022-10-15T04:20:49;99312.19;;;12.42;100.00
31483;BME280;18103;52.246;8.052;2022-10-15T04:23:16;99307.03;;;12.47;100.00
31483;BME280;18103;52.246;8.052;2022-10-15T04:25:43;99300.47;;;12.50;100.00
31483;BME280;18103;52.246;8.052;2022-10-15T04:28:10;99305.19;;;12.47;100.00
31483;BME280;18103;52.246;8.052;2022-10-15T04:30:35;99303.53;;;12.46;100.00
31483;BME280;18103;52.246;8.052;2022-10-15T04:33:01;99304.38;;;12.40;100.00
31483;BME280;18103;52.246;8.052;2022-10-15T04:35:26;99297.59;;;12.44;100.00
31483;BME280;18103;52.246;8.052;2022-10-15T04:37:51;99291.44;;;12.44;100.00
31483;BME280;18103;52.246;8.052;2022-10-15T04:40:20;99295.75;;;12.45;100.00
31483;BME280;18103;52.246;8.052;2022-10-15T04:42:45;99301.09;;;12.52;100.00
31483;BME280;18103;52.246;8.052;2022-10-15T04:45:11;99299.44;;;12.44;100.00
31483;BME280;18103;52.246;8.052;2022-10-15T04:47:36;99303.97;;;12.43;100.00
31483;BME280;18103;52.246;8.052;2022-10-15T04:50:05;99311.38;;;12.41;100.00
31483;BME280;18103;52.246;8.052;2022-10-15T04:52:30;99303.16;;;12.36;100.00
31483;BME280;18103;52.246;8.052;2022-10-15T04:54:56;99305.19;;;12.41;100.00
31483;BME280;18103;52.246;8.052;2022-10-15T04:57:22;99294.69;;;12.39;100.00
31483;BME280;18103;52.246;8.052;2022-10-15T04:59:48;99299.84;;;12.41;100.00
31483;BME280;18103;52.246;8.052;2022-10-15T05:02:13;99301.50;;;12.35;100.00
31483;BME280;18103;52.246;8.052;2022-10-15T05:04:38;99303.53;;;12.33;100.00
31483;BME280;18103;52.246;8.052;2022-10-15T05:07:04;99310.09;;;12.37;100.00
31483;BME280;18103;52.246;8.052;2022-10-15T05:09:29;99301.69;;;12.40;100.00
31483;BME280;18103;52.246;8.052;2022-10-15T05:11:54;99316.72;;;12.41;100.00
31483;BME280;18103;52.246;8.052;2022-10-15T05:14:20;99317.34;;;12.43;100.00
31483;BME280;18103;52.246;8.052;2022-10-15T05:16:46;99316.28;;;12.38;100.00
31483;BME280;18103;52.246;8.052;2022-10-15T05:19:11;99307.44;;;12.37;100.00
31483;BME280;18103;52.246;8.052;2022-10-15T05:21:38;99317.28;;;12.30;100.00
31483;BME280;18103;52.246;8.052;2022-10-15T05:24:03;99312.59;;;12.32;100.00
31483;BME280;18103;52.246;8.052;2022-10-15T05:26:30;99315.66;;;12.29;100.00
31483;BME280;18103;52.246;8.052;2022-10-15T05:28:57;99305.34;;;12.20;100.00
31483;BME280;18103;52.246;8.052;2022-10-15T05:31:25;99311.75;;;12.25;100.00
31483;BME280;18103;52.246;8.052;2022-10-15T05:33:52;99315.44;;;12.24;100.00
31483;BME280;18103;52.246;8.052;2022-10-15T05:36:19;99320.78;;;12.18;100.00
31483;BME280;18103;52.246;8.052;2022-10-15T05:38:46;99317.03;;;12.12;100.00
31483;BME280;18103;52.246;8.052;2022-10-15T05:41:12;99314.38;;;12.12;100.00
31483;BME280;18103;52.246;8.052;2022-10-15T05:43:40;99313.97;;;12.15;100.00
31483;BME280;18103;52.246;8.052;2022-10-15T05:46:07;99315.63;;;12.16;100.00
31483;BME280;18103;52.246;8.052;2022-10-15T05:48:32;99314.16;;;12.07;100.00
31483;BME280;18103;52.246;8.052;2022-10-15T05:51:02;99326.06;;;12.11;100.00
31483;BME280;18103;52.246;8.052;2022-10-15T05:53:28;99324.47;;;12.10;100.00
31483;BME280;18103;52.246;8.052;2022-10-15T05:55:53;99326.06;;;11.98;100.00
31483;BME280;18103;52.246;8.052;2022-10-15T05:58:19;99332.88;;;12.07;100.00
31483;BME280;18103;52.246;8.052;2022-10-15T06:00:44;99323.19;;;12.06;100.00
31483;BME280;18103;52.246;8.052;2022-10-15T06:03:13;99320.13;;;12.09;100.00
31483;BME280;18103;52.246;8.052;2022-10-15T06:05:39;99323.22;;;12.13;100.00
31483;BME280;18103;52.246;8.052;2022-10-15T06:08:04;99328.53;;;12.06;100.00
31483;BME280;18103;52.246;8.052;2022-10-15T06:10:30;99325.28;;;12.11;100.00
31483;BME280;18103;52.246;8.052;2022-10-15T06:12:58;99326.91;;;12.05;100.00
31483;BME280;18103;52.246;8.052;2022-10-15T06:15:24;99328.09;;;11.96;100.00
31483;BME280;18103;52.246;8.052;2022-10-15T06:17:51;99332.47;;;12.10;100.00
31483;BME280;18103;52.246;8.052;2022-10-15T06:20:17;99328.94;;;12.03;100.00
31483;BME280;18103;52.246;8.052;2022-10-15T06:22:42;99333.88;;;12.06;100.00
31483;BME280;18103;52.246;8.052;2022-10-15T06:25:08;99344.19;;;12.09;100.00
31483;BME280;18103;52.246;8.052;2022-10-15T06:27:34;99339.03;;;12.07;100.00
31483;BME280;18103;52.246;8.052;2022-10-15T06:29:59;99342.13;;;12.11;100.00
31483;BME280;18103;52.246;8.052;2022-10-15T06:32:24;99342.13;;;12.11;100.00
31483;BME280;18103;52.246;8.052;2022-10-15T06:34:50;99340.69;;;12.15;100.00
31483;BME280;18103;52.246;8.052;2022-10-15T06:37:15;99338.00;;;12.08;100.00
31483;BME280;18103;52.246;8.052;2022-10-15T06:39:40;99348.50;;;12.10;100.00
31483;BME280;18103;52.246;8.052;2022-10-15T06:42:06;99353.44;;;12.13;100.00
31483;BME280;18103;52.246;8.052;2022-10-15T06:44:31;99359.41;;;12.15;100.00
31483;BME280;18103;52.246;8.052;2022-10-15T06:46:56;99356.09;;;12.13;100.00
31483;BME280;18103;52.246;8.052;2022-10-15T06:49:23;99363.91;;;12.15;100.00
31483;BME280;18103;52.246;8.052;2022-10-15T06:51:48;99358.97;;;12.12;100.00
31483;BME280;18103;52.246;8.052;2022-10-15T06:54:14;99356.34;;;12.18;100.00
31483;BME280;18103;52.246;8.052;2022-10-15T06:56:39;99359.84;;;12.19;100.00
31483;BME280;18103;52.246;8.052;2022-10-15T06:59:04;99358.59;;;12.21;100.00
31483;BME280;18103;52.246;8.052;2022-10-15T07:01:30;99366.63;;;12.21;100.00
31483;BME280;18103;52.246;8.052;2022-10-15T07:03:55;99358.19;;;12.18;100.00
31483;BME280;18103;52.246;8.052;2022-10-15T07:06:23;99358.78;;;12.13;100.00
31483;BME280;18103;52.246;8.052;2022-10-15T07:08:49;99362.53;;;12.25;100.00
31483;BME280;18103;52.246;8.052;2022-10-15T07:11:15;99364.78;;;12.28;100.00
31483;BME280;18103;52.246;8.052;2022-10-15T07:13:40;99357.81;;;12.27;100.00
31483;BME280;18103;52.246;8.052;2022-10-15T07:16:08;99364.75;;;12.22;100.00
31483;BME280;18103;52.246;8.052;2022-10-15T07:18:34;99364.81;;;12.35;100.00
31483;BME280;18103;52.246;8.052;2022-10-15T07:21:01;99370.13;;;12.28;100.00
31483;BME280;18103;52.246;8.052;2022-10-15T07:23:26;99373.03;;;12.33;100.00
31483;BME280;18103;52.246;8.052;2022-10-15T07:25:52;99367.06;;;12.31;100.00
31483;BME280;18103;52.246;8.052;2022-10-15T07:28:18;99372.22;;;12.33;100.00
31483;BME280;18103;52.246;8.052;2022-10-15T07:30:43;99368.91;;;12.37;100.00
31483;BME280;18103;52.246;8.052;2022-10-15T07:33:08;99365.66;;;12.35;100.00
31483;BME280;18103;52.246;8.052;2022-10-15T07:35:36;99370.81;;;12.43;100.00
31483;BME280;18103;52.246;8.052;2022-10-15T07:38:02;99368.53;;;12.40;100.00
31483;BME280;18103;52.246;8.052;2022-10-15T07:40:27;99375.53;;;12.48;100.00
31483;BME280;18103;52.246;8.052;2022-10-15T07:42:55;99375.34;;;12.50;100.00
31483;BME280;18103;52.246;8.052;2022-10-15T07:45:21;99381.50;;;12.50;100.00
31483;BME280;18103;52.246;8.052;2022-10-15T07:47:47;99367.13;;;12.58;100.00
31483;BME280;18103;52.246;8.052;2022-10-15T07:50:12;99372.28;;;12.59;100.00
31483;BME280;18103;52.246;8.052;2022-10-15T07:52:37;99371.66;;;12.57;100.00
31483;BME280;18103;52.246;8.052;2022-10-15T07:55:05;99361.13;;;12.49;100.00
31483;BME280;18103;52.246;8.052;2022-10-15T07:57:30;99371.44;;;12.52;100.00
31483;BME280;18103;52.246;8.052;2022-10-15T07:59:56;99370.00;;;12.56;100.00
31483;BME280;18103;52.246;8.052;2022-10-15T08:02:21;99363.22;;;12.54;100.00
31483;BME280;18103;52.246;8.052;2022-10-15T08:04:46;99361.56;;;12.53;100.00
31483;BME280;18103;52.246;8.052;2022-10-15T08:07:12;99359.09;;;12.58;100.00
31483;BME280;18103;52.246;8.052;2022-10-15T08:09:37;99366.31;;;12.64;100.00
31483;BME280;18103;52.246;8.052;2022-10-15T08:12:03;99360.94;;;12.64;100.00
31483;BME280;18103;52.246;8.052;2022-10-15T08:14:29;99364.06;;;12.67;100.00
31483;BME280;18103;52.246;8.052;2022-10-15T08:16:54;99368.19;;;12.70;100.00
31483;BME280;18103;52.246;8.052;2022-10-15T08:19:20;99370.22;;;12.74;100.00
31483;BME280;18103;52.246;8.052;2022-10-15T08:21:45;99369.22;;;12.82;100.00
31483;BME280;18103;52.246;8.052;2022-10-15T08:24:11;99365.94;;;12.93;100.00
31483;BME280;18103;52.246;8.052;2022-10-15T08:26:36;99372.72;;;12.89;100.00
31483;BME280;18103;52.246;8.052;2022-10-15T08:29:02;99368.22;;;12.96;100.00
31483;BME280;18103;52.246;8.052;2022-10-15T08:31:27;99375.41;;;13.02;100.00
31483;BME280;18103;52.246;8.052;2022-10-15T08:33:53;99376.44;;;13.01;100.00
31483;BME280;18103;52.246;8.052;2022-10-15T08:36:18;99378.06;;;13.02;100.00
31483;BME280;18103;52.246;8.052;2022-10-15T08:38:44;99377.69;;;13.05;100.00
31483;BME280;18103;52.246;8.052;2022-10-15T08:41:38;99371.91;;;13.08;100.00
31483;BME280;18103;52.246;8.052;2022-10-15T08:44:08;99367.19;;;13.17;100.00
31483;BME280;18103;52.246;8.052;2022-10-15T08:46:43;99357.28;;;13.24;100.00
31483;BME280;18103;52.246;8.052;2022-10-15T08:49:24;99352.19;;;13.23;100.00
31483;BME280;18103;52.246;8.052;2022-10-15T08:51:56;99357.09;;;13.19;100.00
31483;BME280;18103;52.246;8.052;2022-10-15T08:54:27;99356.69;;;13.29;100.00
31483;BME280;18103;52.246;8.052;2022-10-15T08:57:10;99358.31;;;13.36;100.00
31483;BME280;18103;52.246;8.052;2022-10-15T09:00:07;99358.31;;;13.43;100.00
31483;BME280;18103;52.246;8.052;2022-10-15T09:02:49;99362.84;;;13.49;100.00
31483;BME280;18103;52.246;8.052;2022-10-15T09:05:27;99366.94;;;13.51;100.00
31483;BME280;18103;52.246;8.052;2022-10-15T09:08:21;99360.53;;;13.59;100.00
31483;BME280;18103;52.246;8.052;2022-10-15T09:10:59;99366.50;;;13.68;100.00
31483;BME280;18103;52.246;8.052;2022-10-15T09:13:32;99375.94;;;13.77;100.00
31483;BME280;18103;52.246;8.052;2022-10-15T09:16:11;99369.75;;;13.83;100.00
31483;BME280;18103;52.246;8.052;2022-10-15T09:18:41;99365.41;;;13.88;100.00
31483;BME280;18103;52.246;8.052;2022-10-15T09:21:08;99368.09;;;13.88;100.00
31483;BME280;18103;52.246;8.052;2022-10-15T09:23:36;99369.28;;;13.92;100.00
31483;BME280;18103;52.246;8.052;2022-10-15T09:26:08;99363.53;;;13.95;100.00
31483;BME280;18103;52.246;8.052;2022-10-15T09:28:52;99363.53;;;13.95;100.00
31483;BME280;18103;52.246;8.052;2022-10-15T09:31:27;99358.56;;;13.99;100.00
31483;BME280;18103;52.246;8.052;2022-10-15T09:34:02;99350.66;;;14.11;100.00
31483;BME280;18103;52.246;8.052;2022-10-15T09:39:27;99344.88;;;14.14;100.00
31483;BME280;18103;52.246;8.052;2022-10-15T09:44:42;99346.34;;;14.10;100.00
31483;BME280;18103;52.246;8.052;2022-10-15T09:47:22;99356.84;;;14.18;100.00
31483;BME280;18103;52.246;8.052;2022-10-15T09:49:48;99347.31;;;14.22;100.00
31483;BME280;18103;52.246;8.052;2022-10-15T09:55:45;99357.78;;;14.43;100.00
31483;BME280;18103;52.246;8.052;2022-10-15T09:58:20;99353.81;;;14.46;100.00
31483;BME280;18103;52.246;8.052;2022-10-15T10:00:51;99356.28;;;14.47;100.00
31483;BME280;18103;52.246;8.052;2022-10-15T10:03:17;99346.31;;;14.54;100.00
31483;BME280;18103;52.246;8.052;2022-10-15T10:05:43;99342.97;;;14.65;100.00
31483;BME280;18103;52.246;8.052;2022-10-15T10:08:22;99346.38;;;14.79;100.00
31483;BME280;18103;52.246;8.052;2022-10-15T10:10:56;99351.50;;;14.87;100.00
31483;BME280;18103;52.246;8.052;2022-10-15T10:13:24;99339.38;;;15.03;100.00
31483;BME280;18103;52.246;8.052;2022-10-15T10:15:53;99348.41;;;15.08;100.00
31483;BME280;18103;52.246;8.052;2022-10-15T10:18:23;99345.09;;;15.13;100.00
31483;BME280;18103;52.246;8.052;2022-10-15T10:20:54;99351.31;;;15.07;100.00
31483;BME280;18103;52.246;8.052;2022-10-15T10:23:32;99335.19;;;15.07;100.00
31483;BME280;18103;52.246;8.052;2022-10-15T10:26:00;99348.53;;;14.95;100.00
31483;BME280;18103;52.246;8.052;2022-10-15T10:28:32;99352.81;;;15.03;100.00
31483;BME280;18103;52.246;8.052;2022-10-15T10:31:00;99358.75;;;15.05;100.00
31483;BME280;18103;52.246;8.052;2022-10-15T10:33:34;99350.53;;;15.00;100.00
31483;BME280;18103;52.246;8.052;2022-10-15T10:36:01;99348.69;;;15.00;100.00
31483;BME280;18103;52.246;8.052;2022-10-15T10:38:35;99346.41;;;15.04;100.00
31483;BME280;18103;52.246;8.052;2022-10-15T10:41:06;99333.34;;;15.07;100.00
31483;BME280;18103;52.246;8.052;2022-10-15T10:43:38;99330.25;;;15.29;100.00
31483;BME280;18103;52.246;8.052;2022-10-15T10:48:41;99305.72;;;15.43;99.40
31483;BME280;18103;52.246;8.052;2022-10-15T10:53:56;99324.09;;;15.83;98.55
31483;BME280;18103;52.246;8.052;2022-10-15T10:56:37;99316.03;;;16.01;97.53
31483;BME280;18103;52.246;8.052;2022-10-15T10:59:14;99306.78;;;15.97;96.12
31483;BME280;18103;52.246;8.052;2022-10-15T11:01:40;99301.38;;;16.15;93.92
31483;BME280;18103;52.246;8.052;2022-10-15T11:04:11;99284.03;;;16.41;94.83
31483;BME280;18103;52.246;8.052;2022-10-15T11:10:06;99294.94;;;16.58;93.42
31483;BME280;18103;52.246;8.052;2022-10-15T11:13:05;99288.94;;;16.74;93.27
31483;BME280;18103;52.246;8.052;2022-10-15T11:15:48;99291.97;;;16.66;90.96
31483;BME280;18103;52.246;8.052;2022-10-15T11:18:26;99280.16;;;16.67;90.72
31483;BME280;18103;52.246;8.052;2022-10-15T11:21:12;99274.88;;;16.72;90.13
31483;BME280;18103;52.246;8.052;2022-10-15T11:28:52;99271.41;;;16.95;89.08
31483;BME280;18103;52.246;8.052;2022-10-15T11:31:41;99262.13;;;16.91;89.26
31483;BME280;18103;52.246;8.052;2022-10-15T11:37:23;99261.44;;;17.19;86.86
31483;BME280;18103;52.246;8.052;2022-10-15T11:42:54;99257.41;;;17.45;86.69
31483;BME280;18103;52.246;8.052;2022-10-15T11:45:36;99255.84;;;17.60;87.46
31483;BME280;18103;52.246;8.052;2022-10-15T11:48:45;99254.44;;;17.69;86.30
31483;BME280;18103;52.246;8.052;2022-10-15T11:51:26;99245.78;;;17.67;84.59
31483;BME280;18103;52.246;8.052;2022-10-15T11:56:37;99250.03;;;17.63;84.33
31483;BME280;18103;52.246;8.052;2022-10-15T12:02:10;99240.28;;;17.62;83.72
31483;BME280;18103;52.246;8.052;2022-10-15T12:04:47;99245.06;;;17.60;84.20
31483;BME280;18103;52.246;8.052;2022-10-15T12:07:22;99235.72;;;17.63;82.67
31483;BME280;18103;52.246;8.052;2022-10-15T12:09:53;99224.69;;;17.64;82.27
31483;BME280;18103;52.246;8.052;2022-10-15T12:12:58;99216.72;;;17.69;83.10
31483;BME280;18103;52.246;8.052;2022-10-15T12:15:51;99225.53;;;17.53;82.48
31483;BME280;18103;52.246;8.052;2022-10-15T12:18:34;99211.38;;;17.46;83.04
31483;BME280;18103;52.246;8.052;2022-10-15T12:21:02;99212.97;;;17.47;82.70
31483;BME280;18103;52.246;8.052;2022-10-15T12:25:58;99212.97;;;17.47;82.70
31483;BME280;18103;52.246;8.052;2022-10-15T12:28:27;99205.63;;;17.31;82.73
31483;BME280;18103;52.246;8.052;2022-10-15T12:31:02;99206.69;;;17.30;83.55
31483;BME280;18103;52.246;8.052;2022-10-15T12:33:35;99202.88;;;17.14;84.53
31483;BME280;18103;52.246;8.052;2022-10-15T12:36:21;99201.00;;;17.15;85.60
31483;BME280;18103;52.246;8.052;2022-10-15T12:39:22;99204.41;;;16.98;86.71
31483;BME280;18103;52.246;8.052;2022-10-15T12:41:48;99218.94;;;16.97;87.74
31483;BME280;18103;52.246;8.052;2022-10-15T12:44:32;99199.84;;;16.87;88.56
31483;BME280;18103;52.246;8.052;2022-10-15T12:47:04;99207.22;;;17.04;88.98
31483;BME280;18103;52.246;8.052;2022-10-15T12:57:51;99210.50;;;16.82;91.02
31483;BME280;18103;52.246;8.052;2022-10-15T13:00:38;99217.28;;;16.73;91.47
31483;BME280;18103;52.246;8.052;2022-10-15T13:03:20;99200.22;;;16.68;92.10
31483;BME280;18103;52.246;8.052;2022-10-15T13:05:47;99194.56;;;16.69;92.15
31483;BME280;18103;52.246;8.052;2022-10-15T13:08:20;99191.19;;;16.62;92.97
31483;BME280;18103;52.246;8.052;2022-10-15T13:13:18;99189.41;;;16.56;92.79
31483;BME280;18103;52.246;8.052;2022-10-15T13:16:07;99190.69;;;16.53;93.58
31483;BME280;18103;52.246;8.052;2022-10-15T13:18:33;99190.69;;;16.42;93.94
31483;BME280;18103;52.246;8.052;2022-10-15T13:20:59;99188.44;;;16.39;94.63
31483;BME280;18103;52.246;8.052;2022-10-15T13:23:31;99184.72;;;16.40;96.40
31483;BME280;18103;52.246;8.052;2022-10-15T13:26:10;99181.16;;;16.28;97.27
31483;BME280;18103;52.246;8.052;2022-10-15T13:28:39;99190.28;;;16.27;97.81
31483;BME280;18103;52.246;8.052;2022-10-15T13:33:41;99180.91;;;16.17;99.60
31483;BME280;18103;52.246;8.052;2022-10-15T13:36:08;99182.56;;;16.18;100.00
31483;BME280;18103;52.246;8.052;2022-10-15T13:38:36;99169.72;;;16.20;100.00
31483;BME280;18103;52.246;8.052;2022-10-15T13:41:03;99172.88;;;16.29;99.90
31483;BME280;18103;52.246;8.052;2022-10-15T13:43:28;99169.72;;;16.20;100.00
31483;BME280;18103;52.246;8.052;2022-10-15T13:45:58;99173.56;;;16.13;100.00
31483;BME280;18103;52.246;8.052;2022-10-15T13:48:29;99176.63;;;16.16;100.00
31483;BME280;18103;52.246;8.052;2022-10-15T13:50:57;99174.50;;;16.18;100.00
31483;BME280;18103;52.246;8.052;2022-10-15T13:53:35;99182.38;;;16.32;100.00
31483;BME280;18103;52.246;8.052;2022-10-15T13:56:13;99176.72;;;16.21;100.00
31483;BME280;18103;52.246;8.052;2022-10-15T13:58:45;99175.09;;;16.20;100.00
31483;BME280;18103;52.246;8.052;2022-10-15T14:01:17;99181.25;;;16.09;100.00
31483;BME280;18103;52.246;8.052;2022-10-15T14:04:13;99172.72;;;16.12;100.00
31483;BME280;18103;52.246;8.052;2022-10-15T14:06:35;99176.03;;;16.14;100.00
31483;BME280;18103;52.246;8.052;2022-10-15T14:09:20;99162.34;;;16.16;100.00
31483;BME280;18103;52.246;8.052;2022-10-15T14:11:49;99176.03;;;16.14;100.00
31483;BME280;18103;52.246;8.052;2022-10-15T14:14:27;99174.75;;;16.17;100.00
31483;BME280;18103;52.246;8.052;2022-10-15T14:16:54;99168.53;;;16.16;100.00